Time;durP1;ratioP1;P1;durP2;ratioP2;P2;SDS_P1;SDS_P2;PMS_P1;PMS_P2;Temp;Humidity;BMP_temperature;BMP_pressure;BME280_temperature;BME280_humidity;BME280_pressure;Samples;Min_cycle;Max_cycle;Signal;HPM_P1;HPM_P2
2023/03/25 00:00:23;;;;;;;;;;;;;;;;;;1030112;28;3052;-49
2023/03/25 00:01:15;;;;;;;;;;;;;;;;;;1031108;28;4097;-52
2023/03/25 00:01:46;;;;;;;;;;;;;;;;;;1028424;28;3791;-51
2023/03/25 00:02:16;;;;;;;;;;;;;;;;;;1029847;28;2830;-52
2023/03/25 00:02:51;;;;;;;;;;;;;;;;;;1030711;28;4399;-53
2023/03/25 00:03:21;;;;;;;;;;;;;;;;;;1032874;28;3103;-51
2023/03/25 00:03:52;;;;;;;;;;;;;;;;;;1037229;28;3859;-49
2023/03/25 00:04:26;;;;;;;;;;;;;;;;;;1039212;28;2002;-51
2023/03/25 00:04:59;;;;;;;;;;;;;;;;;;1035914;28;3885;-51
2023/03/25 00:05:29;;;;;;;;;;;;;;;;;;1037229;28;4096;-52
2023/03/25 00:06:00;;;;;;;;;;;;;;;;;;1038125;28;2118;-50
2023/03/25 00:06:33;;;;;;;;;;;;;;;;;;1036205;28;4175;-53
2023/03/25 00:07:03;;;;;;;;;;;;;;;;;;1036004;28;1898;-52
2023/03/25 00:07:35;;;;;;;;;;;;;;;;;;1038712;28;4019;-49
2023/03/25 00:08:06;;;;;;;;;;;;;;;;;;1037403;28;2862;-50
2023/03/25 00:08:36;;;;;;;;;;;;;;;;;;1038437;28;4127;-53
2023/03/25 00:09:07;;;;;;;;;;;;;;;;;;1038546;28;1868;-50
2023/03/25 00:09:37;;;;;;;;;;;;;;;;;;1036414;28;4074;-53
2023/03/25 00:10:08;;;;;;;;;;;;;;;;;;1035389;28;2998;-51
2023/03/25 00:10:38;;;;;;;;;;;;;;;;;;1037187;28;4261;-49
2023/03/25 00:11:09;;;;;;;;;;;;;;;;;;1038023;28;1704;-51
2023/03/25 00:11:39;;;;;;;;;;;;;;;;;;1037828;28;4391;-53
2023/03/25 00:12:09;;;;;;;;;;;;;;;;;;1039083;28;2513;-51
2023/03/25 00:12:41;;;;;;;;;;;;;;;;;;1038851;28;4059;-51
2023/03/25 00:13:12;;;;;;;;;;;;;;;;;;1038763;28;1451;-51
2023/03/25 00:13:43;;;;;;;;;;;;;;;;;;1037985;28;3805;-49
2023/03/25 00:14:15;;;;;;;;;;;;;;;;;;1039265;28;1827;-52
2023/03/25 00:14:53;;;;;;;;;;;;;;;;;;1038142;28;3886;-50
2023/03/25 00:15:23;;;;;;;;;;;;;;;;;;1038086;28;2260;-55
2023/03/25 00:15:57;;;;;;;;;;;;;;;;;;1036646;28;4037;-52
2023/03/25 00:16:27;;;;;;;;;;;;;;;;;;1036889;28;2736;-52
2023/03/25 00:16:57;;;;;;;;;;;;;;;;;;1035195;28;3808;-51
2023/03/25 00:17:29;;;;;;;;;;;;;;;;;;1038584;28;1652;-50
2023/03/25 00:18:00;;;;;;;;;;;;;;;;;;1037749;28;3919;-50
2023/03/25 00:18:32;;;;;;;;;;;;;;;;;;1037799;28;3870;-49
2023/03/25 00:19:02;;;;;;;;;;;;;;;;;;1034812;28;1645;-54
2023/03/25 00:19:34;;;;;;;;;;;;;;;;;;1031599;28;3901;-49
2023/03/25 00:20:07;;;;;;;;;;;;;;;;;;1033845;28;2901;-53
2023/03/25 00:20:44;;;;;;;;;;;;;;;;;;1033600;28;4062;-53
2023/03/25 00:21:15;;;;;;;;;;;;;;;;;;1032798;28;1849;-54
2023/03/25 00:21:45;;;;;;;;;;;;;;;;;;1033586;28;4101;-54
2023/03/25 00:22:16;;;;;;;;;;;;;;;;;;1033615;28;1662;-50
2023/03/25 00:22:46;;;;;;;;;;;;;;;;;;1031530;28;3862;-52
2023/03/25 00:23:20;;;;;;;;;;;;;;;;;;1033167;28;2286;-51
2023/03/25 00:23:50;;;;;;;;;;;;;;;;;;1032082;28;3903;-55
2023/03/25 00:24:21;;;;;;;;;;;;;;;;;;1035055;28;1599;-49
2023/03/25 00:24:51;;;;;;;;;;;;;;;;;;1032480;28;4155;-51
2023/03/25 00:25:23;;;;;;;;;;;;;;;;;;1035535;28;1706;-51
2023/03/25 00:25:59;;;;;;;;;;;;;;;;;;1033217;28;4044;-51
2023/03/25 00:26:31;;;;;;;;;;;;;;;;;;1032241;28;4426;-52
2023/03/25 00:27:01;;;;;;;;;;;;;;;;;;1030961;28;2779;-52
2023/03/25 00:27:31;;;;;;;;;;;;;;;;;;1034344;28;3852;-51
2023/03/25 00:28:02;;;;;;;;;;;;;;;;;;1034894;28;3176;-53
2023/03/25 00:28:33;;;;;;;;;;;;;;;;;;1034283;28;4134;-52
2023/03/25 00:29:04;;;;;;;;;;;;;;;;;;1032933;28;3100;-49
2023/03/25 00:29:34;;;;;;;;;;;;;;;;;;1031581;28;4047;-53
2023/03/25 00:30:05;;;;;;;;;;;;;;;;;;1030587;28;2893;-51
2023/03/25 00:30:38;;;;;;;;;;;;;;;;;;1031958;28;3907;-51
2023/03/25 00:31:11;;;;;;;;;;;;;;;;;;1033825;28;2783;-52
2023/03/25 00:31:41;;;;;;;;;;;;;;;;;;1034149;28;4254;-53
2023/03/25 00:32:13;;;;;;;;;;;;;;;;;;1032654;28;2364;-51
2023/03/25 00:32:51;;;;;;;;;;;;;;;;;;1033364;28;4129;-51
2023/03/25 00:33:21;;;;;;;;;;;;;;;;;;1030042;28;3426;-49
2023/03/25 00:33:52;;;;;;;;;;;;;;;;;;1032174;28;3948;-54
2023/03/25 00:34:22;;;;;;;;;;;;;;;;;;1031791;28;3033;-52
2023/03/25 00:34:52;;;;;;;;;;;;;;;;;;1032770;28;4009;-54
2023/03/25 00:35:24;;;;;;;;;;;;;;;;;;1034901;28;2995;-53
2023/03/25 00:35:58;;;;;;;;;;;;;;;;;;1032848;28;3868;-52
2023/03/25 00:36:28;;;;;;;;;;;;;;;;;;1032775;28;3176;-51
2023/03/25 00:36:58;;;;;;;;;;;;;;;;;;1032038;28;3691;-50
2023/03/25 00:37:29;;;;;;;;;;;;;;;;;;1032422;28;3956;-52
2023/03/25 00:38:00;;;;;;;;;;;;;;;;;;1031999;28;2826;-49
2023/03/25 00:38:33;;;;;;;;;;;;;;;;;;1035141;28;4075;-50
2023/03/25 00:39:04;;;;;;;;;;;;;;;;;;1033119;28;2005;-49
2023/03/25 00:39:34;;;;;;;;;;;;;;;;;;1031932;28;3796;-51
2023/03/25 00:40:05;;;;;;;;;;;;;;;;;;1033547;28;1798;-52
2023/03/25 00:40:35;;;;;;;;;;;;;;;;;;1034257;28;3900;-53
2023/03/25 00:41:08;;;;;;;;;;;;;;;;;;1033291;28;1898;-52
2023/03/25 00:41:40;;;;;;;;;;;;;;;;;;1030566;28;4057;-51
2023/03/25 00:42:13;;;;;;;;;;;;;;;;;;1035600;28;2809;-52
2023/03/25 00:42:49;;;;;;;;;;;;;;;;;;1034427;28;4053;-51
2023/03/25 00:43:19;;;;;;;;;;;;;;;;;;1033091;28;2228;-50
2023/03/25 00:43:56;;;;;;;;;;;;;;;;;;1029368;28;3964;-51
2023/03/25 00:44:27;;;;;;;;;;;;;;;;;;1034002;28;1810;-51
2023/03/25 00:44:57;;;;;;;;;;;;;;;;;;1033511;28;4001;-48
2023/03/25 00:45:28;;;;;;;;;;;;;;;;;;1030683;28;2914;-49
2023/03/25 00:45:58;;;;;;;;;;;;;;;;;;1033133;28;4142;-51
2023/03/25 00:46:30;;;;;;;;;;;;;;;;;;1033638;28;1976;-53
2023/03/25 00:47:00;;;;;;;;;;;;;;;;;;1033975;28;3821;-50
2023/03/25 00:47:31;;;;;;;;;;;;;;;;;;1032022;28;4097;-54
2023/03/25 00:48:01;;;;;;;;;;;;;;;;;;1034930;28;2884;-53
2023/03/25 00:48:31;;;;;;;;;;;;;;;;;;1033059;28;4039;-52
2023/03/25 00:49:02;;;;;;;;;;;;;;;;;;1034136;28;2095;-51
2023/03/25 00:49:32;;;;;;;;;;;;;;;;;;1032829;28;4021;-51
2023/03/25 00:50:03;;;;;;;;;;;;;;;;;;1030003;28;3579;-50
2023/03/25 00:50:33;;;;;;;;;;;;;;;;;;1032031;28;4056;-50
2023/03/25 00:51:07;;;;;;;;;;;;;;;;;;1034160;28;1836;-51
2023/03/25 00:51:37;;;;;;;;;;;;;;;;;;1029779;28;4065;-56
2023/03/25 00:52:07;;;;;;;;;;;;;;;;;;1032831;28;2997;-51
2023/03/25 00:52:38;;;;;;;;;;;;;;;;;;1032601;28;3927;-52
2023/03/25 00:53:08;;;;;;;;;;;;;;;;;;1035179;28;2901;-48
2023/03/25 00:53:39;;;;;;;;;;;;;;;;;;1034331;28;4058;-52
2023/03/25 00:54:10;;;;;;;;;;;;;;;;;;1033325;28;2765;-54
2023/03/25 00:54:41;;;;;;;;;;;;;;;;;;1032395;28;3979;-50
2023/03/25 00:55:11;;;;;;;;;;;;;;;;;;1035454;28;1753;-49
2023/03/25 00:55:41;;;;;;;;;;;;;;;;;;1033880;28;3781;-49
2023/03/25 00:56:11;;;;;;;;;;;;;;;;;;1033449;28;2643;-51
2023/03/25 00:56:42;;;;;;;;;;;;;;;;;;1034713;28;4076;-50
2023/03/25 00:57:12;;;;;;;;;;;;;;;;;;1034834;28;1679;-50
2023/03/25 00:57:42;;;;;;;;;;;;;;;;;;1034880;28;3960;-50
2023/03/25 00:58:13;;;;;;;;;;;;;;;;;;1033805;28;1802;-50
2023/03/25 00:58:43;;;;;;;;;;;;;;;;;;1034301;28;3896;-51
2023/03/25 00:59:14;;;;;;;;;;;;;;;;;;1033366;28;1613;-50
2023/03/25 00:59:44;;;;;;;;;;;;;;;;;;1034381;28;3881;-52
2023/03/25 01:00:15;;;;;;;;;;;;;;;;;;1033326;28;2929;-52
2023/03/25 01:00:47;;;;;;;;;;;;;;;;;;1033559;28;4489;-50
2023/03/25 01:01:22;;;;;;;;;;;;;;;;;;1034448;28;1980;-51
2023/03/25 01:01:54;;;;;;;;;;;;;;;;;;1034202;28;3780;-53
2023/03/25 01:02:25;;;;;;;;;;;;;;;;;;1031875;28;2849;-50
2023/03/25 01:02:55;;;;;;;;;;;;;;;;;;1031792;28;3877;-51
2023/03/25 01:03:27;;;;;;;;;;;;;;;;;;1033222;28;2835;-48
2023/03/25 01:03:58;;;;;;;;;;;;;;;;;;1031624;28;3937;-50
2023/03/25 01:04:29;;;;;;;;;;;;;;;;;;1034104;28;4249;-50
2023/03/25 01:04:59;;;;;;;;;;;;;;;;;;1034707;28;1669;-51
2023/03/25 01:05:29;;;;;;;;;;;;;;;;;;1032345;28;4155;-49
2023/03/25 01:06:00;;;;;;;;;;;;;;;;;;1033074;28;3077;-51
2023/03/25 01:06:34;;;;;;;;;;;;;;;;;;1033810;28;4094;-51
2023/03/25 01:07:04;;;;;;;;;;;;;;;;;;1034961;28;1388;-48
2023/03/25 01:07:35;;;;;;;;;;;;;;;;;;1034043;28;4045;-52
2023/03/25 01:08:06;;;;;;;;;;;;;;;;;;1034633;28;1679;-51
2023/03/25 01:08:37;;;;;;;;;;;;;;;;;;1032066;28;3884;-49
2023/03/25 01:09:07;;;;;;;;;;;;;;;;;;1033370;28;2553;-52
2023/03/25 01:09:38;;;;;;;;;;;;;;;;;;1032407;28;3885;-52
2023/03/25 01:10:10;;;;;;;;;;;;;;;;;;1033341;28;2538;-49
2023/03/25 01:10:40;;;;;;;;;;;;;;;;;;1033680;28;3895;-52
2023/03/25 01:11:18;;;;;;;;;;;;;;;;;;1034578;28;1745;-51
2023/03/25 01:11:49;;;;;;;;;;;;;;;;;;1035253;28;3917;-48
2023/03/25 01:12:19;;;;;;;;;;;;;;;;;;1036261;28;2718;-54
2023/03/25 01:12:49;;;;;;;;;;;;;;;;;;1035255;28;3897;-51
2023/03/25 01:13:21;;;;;;;;;;;;;;;;;;1035170;28;2946;-50
2023/03/25 01:13:52;;;;;;;;;;;;;;;;;;1036490;28;3945;-52
2023/03/25 01:14:26;;;;;;;;;;;;;;;;;;1036433;28;2856;-50
2023/03/25 01:14:56;;;;;;;;;;;;;;;;;;1037269;28;4016;-52
2023/03/25 01:15:26;;;;;;;;;;;;;;;;;;1037710;28;2836;-50
2023/03/25 01:15:56;;;;;;;;;;;;;;;;;;1037017;28;3962;-53
2023/03/25 01:16:27;;;;;;;;;;;;;;;;;;1039304;28;1910;-53
2023/03/25 01:16:58;;;;;;;;;;;;;;;;;;1038072;28;3777;-52
2023/03/25 01:17:28;;;;;;;;;;;;;;;;;;1038322;28;1837;-52
2023/03/25 01:17:59;;;;;;;;;;;;;;;;;;1034114;28;3589;-53
2023/03/25 01:18:33;;;;;;;;;;;;;;;;;;1035363;28;4075;-49
2023/03/25 01:19:04;;;;;;;;;;;;;;;;;;1038281;28;3145;-52
2023/03/25 01:19:34;;;;;;;;;;;;;;;;;;1037497;28;4006;-49
2023/03/25 01:20:05;;;;;;;;;;;;;;;;;;1037569;28;2727;-52
2023/03/25 01:20:37;;;;;;;;;;;;;;;;;;1035371;28;4053;-50
2023/03/25 01:21:07;;;;;;;;;;;;;;;;;;1036582;28;1885;-51
2023/03/25 01:21:38;;;;;;;;;;;;;;;;;;1034383;28;4031;-52
2023/03/25 01:22:08;;;;;;;;;;;;;;;;;;1034299;28;2911;-50
2023/03/25 01:22:38;;;;;;;;;;;;;;;;;;1036951;28;4070;-52
2023/03/25 01:23:09;;;;;;;;;;;;;;;;;;1035507;28;2884;-49
2023/03/25 01:23:40;;;;;;;;;;;;;;;;;;1036902;28;4050;-55
2023/03/25 01:24:11;;;;;;;;;;;;;;;;;;1032545;28;2703;-52
2023/03/25 01:24:42;;;;;;;;;;;;;;;;;;1036032;28;4051;-50
2023/03/25 01:25:12;;;;;;;;;;;;;;;;;;1037891;28;2789;-54
2023/03/25 01:25:42;;;;;;;;;;;;;;;;;;1036763;28;4098;-52
2023/03/25 01:26:13;;;;;;;;;;;;;;;;;;1035415;28;2776;-48
2023/03/25 01:26:44;;;;;;;;;;;;;;;;;;1037170;28;4077;-49
2023/03/25 01:27:14;;;;;;;;;;;;;;;;;;1038130;28;1819;-53
2023/03/25 01:27:45;;;;;;;;;;;;;;;;;;1037671;28;4359;-51
2023/03/25 01:28:15;;;;;;;;;;;;;;;;;;1038647;28;1235;-51
2023/03/25 01:28:45;;;;;;;;;;;;;;;;;;1034601;28;3775;-50
2023/03/25 01:29:17;;;;;;;;;;;;;;;;;;1039186;28;1641;-52
2023/03/25 01:29:47;;;;;;;;;;;;;;;;;;1035625;28;3874;-53
2023/03/25 01:30:18;;;;;;;;;;;;;;;;;;1035935;28;2724;-51
2023/03/25 01:30:48;;;;;;;;;;;;;;;;;;1034372;28;4012;-50
2023/03/25 01:31:21;;;;;;;;;;;;;;;;;;1037994;28;1767;-50
2023/03/25 01:31:52;;;;;;;;;;;;;;;;;;1035859;28;3989;-50
2023/03/25 01:32:22;;;;;;;;;;;;;;;;;;1037586;28;2715;-51
2023/03/25 01:32:53;;;;;;;;;;;;;;;;;;1035381;28;3995;-52
2023/03/25 01:33:23;;;;;;;;;;;;;;;;;;1037787;28;1835;-53
2023/03/25 01:33:53;;;;;;;;;;;;;;;;;;1037471;28;4008;-50
2023/03/25 01:34:24;;;;;;;;;;;;;;;;;;1035854;28;2722;-49
2023/03/25 01:34:54;;;;;;;;;;;;;;;;;;1037203;28;3980;-49
2023/03/25 01:35:24;;;;;;;;;;;;;;;;;;1037936;28;1824;-53
2023/03/25 01:35:55;;;;;;;;;;;;;;;;;;1036434;28;4032;-51
2023/03/25 01:36:28;;;;;;;;;;;;;;;;;;1036296;28;1971;-49
2023/03/25 01:36:59;;;;;;;;;;;;;;;;;;1038540;28;3874;-53
2023/03/25 01:37:32;;;;;;;;;;;;;;;;;;1037375;28;4334;-50
2023/03/25 01:38:03;;;;;;;;;;;;;;;;;;1036925;28;1788;-51
2023/03/25 01:38:34;;;;;;;;;;;;;;;;;;1036107;28;4055;-51
2023/03/25 01:39:05;;;;;;;;;;;;;;;;;;1038782;28;1712;-53
2023/03/25 01:39:36;;;;;;;;;;;;;;;;;;1037945;28;4145;-50
2023/03/25 01:40:09;;;;;;;;;;;;;;;;;;1035487;28;2786;-51
2023/03/25 01:40:39;;;;;;;;;;;;;;;;;;1034402;28;4046;-52
2023/03/25 01:41:09;;;;;;;;;;;;;;;;;;1037693;28;2625;-52
2023/03/25 01:41:40;;;;;;;;;;;;;;;;;;1038172;28;4068;-54
2023/03/25 01:42:11;;;;;;;;;;;;;;;;;;1036485;28;1795;-50
2023/03/25 01:42:41;;;;;;;;;;;;;;;;;;1037218;28;3833;-52
2023/03/25 01:43:12;;;;;;;;;;;;;;;;;;1037704;28;2151;-53
2023/03/25 01:43:59;;;;;;;;;;;;;;;;;;1036993;28;3915;-51
2023/03/25 01:44:32;;;;;;;;;;;;;;;;;;1037112;28;4083;-51
2023/03/25 01:45:11;;;;;;;;;;;;;;;;;;1037984;28;1825;-51
2023/03/25 01:45:44;;;;;;;;;;;;;;;;;;1037059;28;3834;-55
2023/03/25 01:46:14;;;;;;;;;;;;;;;;;;1037722;28;2892;-52
2023/03/25 01:46:48;;;;;;;;;;;;;;;;;;1038149;28;4031;-50
2023/03/25 01:47:18;;;;;;;;;;;;;;;;;;1036070;28;2727;-49
2023/03/25 01:47:52;;;;;;;;;;;;;;;;;;1036839;28;3845;-54
2023/03/25 01:48:22;;;;;;;;;;;;;;;;;;1038394;28;1689;-49
2023/03/25 01:48:52;;;;;;;;;;;;;;;;;;1035947;28;3853;-50
2023/03/25 01:49:25;;;;;;;;;;;;;;;;;;1035176;28;2741;-49
2023/03/25 01:49:56;;;;;;;;;;;;;;;;;;1035521;28;3944;-50
2023/03/25 01:50:28;;;;;;;;;;;;;;;;;;1037303;28;3079;-50
2023/03/25 01:51:01;;;;;;;;;;;;;;;;;;1035784;28;3832;-53
2023/03/25 01:51:33;;;;;;;;;;;;;;;;;;1037568;28;3794;-52
2023/03/25 01:52:06;;;;;;;;;;;;;;;;;;1038939;28;3208;-50
2023/03/25 01:52:36;;;;;;;;;;;;;;;;;;1037252;28;4399;-51
2023/03/25 01:53:07;;;;;;;;;;;;;;;;;;1037641;28;1767;-49
2023/03/25 01:53:38;;;;;;;;;;;;;;;;;;1034998;28;3937;-54
2023/03/25 01:54:08;;;;;;;;;;;;;;;;;;1036950;28;2193;-52
2023/03/25 01:54:39;;;;;;;;;;;;;;;;;;1037443;28;3944;-52
2023/03/25 01:55:10;;;;;;;;;;;;;;;;;;1036635;28;1806;-48
2023/03/25 01:55:40;;;;;;;;;;;;;;;;;;1037502;28;4048;-56
2023/03/25 01:56:12;;;;;;;;;;;;;;;;;;1035211;28;2740;-51
2023/03/25 01:56:45;;;;;;;;;;;;;;;;;;1037622;28;4124;-51
2023/03/25 01:57:18;;;;;;;;;;;;;;;;;;1037479;28;2244;-50
2023/03/25 01:57:53;;;;;;;;;;;;;;;;;;1038313;28;4095;-52
2023/03/25 01:58:26;;;;;;;;;;;;;;;;;;1036254;28;2178;-53
2023/03/25 01:58:57;;;;;;;;;;;;;;;;;;1037563;28;3994;-49
2023/03/25 01:59:28;;;;;;;;;;;;;;;;;;1036669;28;2467;-50
2023/03/25 01:59:58;;;;;;;;;;;;;;;;;;1037392;28;4347;-50
2023/03/25 02:00:29;;;;;;;;;;;;;;;;;;1035297;28;2901;-51
2023/03/25 02:01:01;;;;;;;;;;;;;;;;;;1036694;28;4075;-51
2023/03/25 02:01:31;;;;;;;;;;;;;;;;;;1037699;28;3953;-50
2023/03/25 02:02:02;;;;;;;;;;;;;;;;;;1036880;28;1863;-52
2023/03/25 02:02:38;;;;;;;;;;;;;;;;;;1035048;28;3873;-50
2023/03/25 02:03:10;;;;;;;;;;;;;;;;;;1038110;28;2683;-54
2023/03/25 02:03:44;;;;;;;;;;;;;;;;;;1037130;28;4041;-48
2023/03/25 02:04:21;;;;;;;;;;;;;;;;;;1037896;28;2566;-51
2023/03/25 02:04:57;;;;;;;;;;;;;;;;;;1037071;28;4049;-51
2023/03/25 02:05:34;;;;;;;;;;;;;;;;;;1037540;28;2477;-53
2023/03/25 02:06:07;;;;;;;;;;;;;;;;;;1034826;28;4009;-49
2023/03/25 02:06:52;;;;;;;;;;;;;;;;;;1036098;28;3915;-50
2023/03/25 02:07:29;;;;;;;;;;;;;;;;;;1035063;28;2802;-51
2023/03/25 02:08:02;;;;;;;;;;;;;;;;;;1036996;28;4021;-53
2023/03/25 02:08:36;;;;;;;;;;;;;;;;;;1035358;28;4067;-53
2023/03/25 02:09:08;;;;;;;;;;;;;;;;;;1035949;28;1927;-48
2023/03/25 02:09:38;;;;;;;;;;;;;;;;;;1036099;28;4119;-49
2023/03/25 02:10:10;;;;;;;;;;;;;;;;;;1035110;28;2830;-48
2023/03/25 02:10:43;;;;;;;;;;;;;;;;;;1036717;28;3795;-49
2023/03/25 02:11:13;;;;;;;;;;;;;;;;;;1037019;28;2924;-53
2023/03/25 02:11:43;;;;;;;;;;;;;;;;;;1036754;28;3896;-52
2023/03/25 02:12:14;;;;;;;;;;;;;;;;;;1035632;28;3206;-50
2023/03/25 02:12:45;;;;;;;;;;;;;;;;;;1036121;28;3872;-50
2023/03/25 02:13:16;;;;;;;;;;;;;;;;;;1034625;28;1794;-49
2023/03/25 02:13:46;;;;;;;;;;;;;;;;;;1036551;28;3930;-50
2023/03/25 02:14:20;;;;;;;;;;;;;;;;;;1036850;28;2722;-52
2023/03/25 02:14:50;;;;;;;;;;;;;;;;;;1034782;28;3795;-51
2023/03/25 02:15:21;;;;;;;;;;;;;;;;;;1036168;28;2861;-52
2023/03/25 02:15:54;;;;;;;;;;;;;;;;;;1037579;28;3973;-53
2023/03/25 02:16:28;;;;;;;;;;;;;;;;;;1037731;28;1904;-50
2023/03/25 02:17:08;;;;;;;;;;;;;;;;;;1036106;28;3980;-53
2023/03/25 02:17:53;;;;;;;;;;;;;;;;;;1037156;28;4123;-49
2023/03/25 02:18:28;;;;;;;;;;;;;;;;;;1037613;28;1787;-52
2023/03/25 02:19:06;;;;;;;;;;;;;;;;;;1037785;28;3994;-50
2023/03/25 02:19:39;;;;;;;;;;;;;;;;;;1035841;28;3798;-55
2023/03/25 02:20:19;;;;;;;;;;;;;;;;;;1038082;28;2687;-52
2023/03/25 02:21:08;;;;;;;;;;;;;;;;;;1035943;28;3872;-49
2023/03/25 02:22:04;;;;;;;;;;;;;;;;;;1037231;28;4105;-49
2023/03/25 02:22:49;;;;;;;;;;;;;;;;;;1036227;28;3907;-55
2023/03/25 02:23:41;;;;;;;;;;;;;;;;;;1038671;28;1786;-49
2023/03/25 02:24:34;;;;;;;;;;;;;;;;;;1032970;28;3842;-50
2023/03/25 02:25:18;;;;;;;;;;;;;;;;;;1033859;28;4054;-49
2023/03/25 02:26:09;;;;;;;;;;;;;;;;;;1032450;28;4377;-50
2023/03/25 02:27:02;;;;;;;;;;;;;;;;;;1032161;28;4072;-50
2023/03/25 02:27:50;;;;;;;;;;;;;;;;;;1034563;28;3891;-52
2023/03/25 02:28:28;;;;;;;;;;;;;;;;;;1033840;28;1824;-51
2023/03/25 02:29:07;;;;;;;;;;;;;;;;;;1033478;28;3759;-50
2023/03/25 02:29:38;;;;;;;;;;;;;;;;;;1033259;28;3956;-53
2023/03/25 02:30:08;;;;;;;;;;;;;;;;;;1032513;28;2227;-52
2023/03/25 02:30:41;;;;;;;;;;;;;;;;;;1032214;28;4073;-51
2023/03/25 02:31:31;;;;;;;;;;;;;;;;;;1033042;28;2704;-51
2023/03/25 02:32:20;;;;;;;;;;;;;;;;;;1032059;28;3957;-52
2023/03/25 02:33:10;;;;;;;;;;;;;;;;;;1030571;28;3899;-51
2023/03/25 02:33:46;;;;;;;;;;;;;;;;;;1034442;28;4073;-50
2023/03/25 02:34:22;;;;;;;;;;;;;;;;;;1032113;28;2695;-52
2023/03/25 02:35:10;;;;;;;;;;;;;;;;;;1030933;28;3760;-53
2023/03/25 02:36:10;;;;;;;;;;;;;;;;;;1030642;28;4082;-53
2023/03/25 02:36:55;;;;;;;;;;;;;;;;;;1034027;28;4149;-49
2023/03/25 02:37:35;;;;;;;;;;;;;;;;;;1036561;28;2271;-51
2023/03/25 02:38:24;;;;;;;;;;;;;;;;;;1034775;28;3897;-51
2023/03/25 02:39:00;;;;;;;;;;;;;;;;;;1038294;28;3971;-54
2023/03/25 02:39:39;;;;;;;;;;;;;;;;;;1037607;28;4297;-50
2023/03/25 02:40:15;;;;;;;;;;;;;;;;;;1036386;28;2825;-48
2023/03/25 02:40:47;;;;;;;;;;;;;;;;;;1036434;28;4034;-49
2023/03/25 02:41:17;;;;;;;;;;;;;;;;;;1036730;28;2691;-52
2023/03/25 02:41:53;;;;;;;;;;;;;;;;;;1036569;28;4045;-51
2023/03/25 02:42:36;;;;;;;;;;;;;;;;;;1038744;28;1646;-50
2023/03/25 02:43:12;;;;;;;;;;;;;;;;;;1031754;28;3750;-51
2023/03/25 02:43:48;;;;;;;;;;;;;;;;;;1033315;28;4017;-52
2023/03/25 02:44:33;;;;;;;;;;;;;;;;;;1032032;28;2671;-51
2023/03/25 02:45:24;;;;;;;;;;;;;;;;;;1033728;28;3817;-50
2023/03/25 02:45:56;;;;;;;;;;;;;;;;;;1037062;28;3955;-50
2023/03/25 02:46:27;;;;;;;;;;;;;;;;;;1035825;28;3039;-52
2023/03/25 02:46:59;;;;;;;;;;;;;;;;;;1034514;28;4179;-56
2023/03/25 02:47:34;;;;;;;;;;;;;;;;;;1030598;28;4112;-50
2023/03/25 02:48:06;;;;;;;;;;;;;;;;;;1032539;28;2803;-49
2023/03/25 02:48:53;;;;;;;;;;;;;;;;;;1032595;28;3919;-51
2023/03/25 02:49:26;;;;;;;;;;;;;;;;;;1033286;28;2218;-50
2023/03/25 02:49:59;;;;;;;;;;;;;;;;;;1032413;28;3982;-51
2023/03/25 02:50:40;;;;;;;;;;;;;;;;;;1031745;28;4114;-52
2023/03/25 02:51:16;;;;;;;;;;;;;;;;;;1031194;28;3012;-50
2023/03/25 02:51:53;;;;;;;;;;;;;;;;;;1032091;28;4026;-52
2023/03/25 02:52:26;;;;;;;;;;;;;;;;;;1033789;28;2932;-53
2023/03/25 02:52:58;;;;;;;;;;;;;;;;;;1033119;28;3993;-54
2023/03/25 02:53:32;;;;;;;;;;;;;;;;;;1033562;28;2912;-53
2023/03/25 02:54:05;;;;;;;;;;;;;;;;;;1032526;28;3689;-52
2023/03/25 02:54:38;;;;;;;;;;;;;;;;;;1032963;28;4070;-52
2023/03/25 02:55:10;;;;;;;;;;;;;;;;;;1031517;28;2747;-52
2023/03/25 02:55:41;;;;;;;;;;;;;;;;;;1034529;28;3879;-55
2023/03/25 02:56:13;;;;;;;;;;;;;;;;;;1034246;28;3175;-51
2023/03/25 02:56:46;;;;;;;;;;;;;;;;;;1036709;28;3880;-53
2023/03/25 02:57:18;;;;;;;;;;;;;;;;;;1034329;28;2669;-53
2023/03/25 02:57:51;;;;;;;;;;;;;;;;;;1035121;28;4030;-49
2023/03/25 02:58:23;;;;;;;;;;;;;;;;;;1033812;28;2754;-54
2023/03/25 02:58:55;;;;;;;;;;;;;;;;;;1034022;28;3897;-51
2023/03/25 02:59:29;;;;;;;;;;;;;;;;;;1034406;28;1866;-53
2023/03/25 02:59:59;;;;;;;;;;;;;;;;;;1035755;28;4095;-52
2023/03/25 03:00:30;;;;;;;;;;;;;;;;;;1032309;28;3812;-51
2023/03/25 03:01:00;;;;;;;;;;;;;;;;;;1035442;28;1819;-50
2023/03/25 03:01:33;;;;;;;;;;;;;;;;;;1032322;28;3969;-53
2023/03/25 03:02:06;;;;;;;;;;;;;;;;;;1034010;28;2446;-49
2023/03/25 03:02:37;;;;;;;;;;;;;;;;;;1034594;28;4129;-54
2023/03/25 03:03:08;;;;;;;;;;;;;;;;;;1033447;28;2819;-52
2023/03/25 03:03:39;;;;;;;;;;;;;;;;;;1033363;28;4211;-50
2023/03/25 03:04:10;;;;;;;;;;;;;;;;;;1035671;28;1750;-52
2023/03/25 03:04:58;;;;;;;;;;;;;;;;;;1032872;28;3795;-54
2023/03/25 03:05:30;;;;;;;;;;;;;;;;;;1035628;28;1697;-50
2023/03/25 03:06:02;;;;;;;;;;;;;;;;;;1038311;28;3887;-51
2023/03/25 03:06:40;;;;;;;;;;;;;;;;;;1037533;28;3779;-51
2023/03/25 03:07:11;;;;;;;;;;;;;;;;;;1038452;28;2732;-52
2023/03/25 03:07:44;;;;;;;;;;;;;;;;;;1038394;28;3947;-53
2023/03/25 03:08:23;;;;;;;;;;;;;;;;;;1039222;28;1929;-53
2023/03/25 03:09:26;;;;;;;;;;;;;;;;;;1040015;28;3928;-51
2023/03/25 03:10:05;;;;;;;;;;;;;;;;;;1023774;28;4006;-49
2023/03/25 03:10:47;;;;;;;;;;;;;;;;;;1020082;28;4979;-52
2023/03/25 03:11:20;;;;;;;;;;;;;;;;;;1033403;28;2831;-50
2023/03/25 03:11:56;;;;;;;;;;;;;;;;;;1031473;28;3874;-51
2023/03/25 03:12:36;;;;;;;;;;;;;;;;;;1034020;28;3009;-51
2023/03/25 03:13:14;;;;;;;;;;;;;;;;;;1036864;28;3923;-54
2023/03/25 03:13:56;;;;;;;;;;;;;;;;;;1035055;28;3853;-53
2023/03/25 03:14:30;;;;;;;;;;;;;;;;;;1034550;28;1593;-53
2023/03/25 03:15:10;;;;;;;;;;;;;;;;;;1032345;28;3816;-54
2023/03/25 03:15:50;;;;;;;;;;;;;;;;;;1036309;28;3755;-51
2023/03/25 03:16:24;;;;;;;;;;;;;;;;;;1035272;28;1716;-50
2023/03/25 03:17:02;;;;;;;;;;;;;;;;;;1034313;28;3943;-50
2023/03/25 03:17:51;;;;;;;;;;;;;;;;;;1033864;28;4107;-51
2023/03/25 03:18:41;;;;;;;;;;;;;;;;;;1034408;28;1996;-47
2023/03/25 03:19:12;;;;;;;;;;;;;;;;;;1033447;28;3743;-53
2023/03/25 03:20:03;;;;;;;;;;;;;;;;;;1034764;28;3765;-50
2023/03/25 03:20:38;;;;;;;;;;;;;;;;;;1031471;28;4039;-51
2023/03/25 03:21:16;;;;;;;;;;;;;;;;;;1033815;28;2585;-49
2023/03/25 03:21:53;;;;;;;;;;;;;;;;;;1032037;28;3871;-53
2023/03/25 03:22:41;;;;;;;;;;;;;;;;;;1032281;28;2823;-51
2023/03/25 03:23:19;;;;;;;;;;;;;;;;;;1034530;28;3978;-50
2023/03/25 03:24:10;;;;;;;;;;;;;;;;;;1034182;28;3999;-52
2023/03/25 03:24:43;;;;;;;;;;;;;;;;;;1032141;28;3979;-53
2023/03/25 03:25:26;;;;;;;;;;;;;;;;;;1036635;28;2325;-52
2023/03/25 03:26:03;;;;;;;;;;;;;;;;;;1034416;28;4861;-54
2023/03/25 03:26:39;;;;;;;;;;;;;;;;;;1034199;28;3859;-52
2023/03/25 03:27:16;;;;;;;;;;;;;;;;;;1038442;28;1728;-52
2023/03/25 03:27:50;;;;;;;;;;;;;;;;;;1037193;28;4021;-53
2023/03/25 03:28:40;;;;;;;;;;;;;;;;;;1037810;28;3048;-53
2023/03/25 03:29:14;;;;;;;;;;;;;;;;;;1036596;28;3997;-50
2023/03/25 03:29:48;;;;;;;;;;;;;;;;;;1036350;28;4028;-53
2023/03/25 03:30:28;;;;;;;;;;;;;;;;;;1036977;28;2656;-50
2023/03/25 03:31:05;;;;;;;;;;;;;;;;;;1037637;28;4535;-53
2023/03/25 03:31:40;;;;;;;;;;;;;;;;;;1038298;28;3903;-53
2023/03/25 03:32:21;;;;;;;;;;;;;;;;;;1039094;28;1923;-51
2023/03/25 03:32:54;;;;;;;;;;;;;;;;;;1035328;28;3880;-50
2023/03/25 03:33:31;;;;;;;;;;;;;;;;;;1037413;28;2036;-49
2023/03/25 03:34:05;;;;;;;;;;;;;;;;;;1037392;28;3841;-52
2023/03/25 03:34:47;;;;;;;;;;;;;;;;;;1036321;28;4114;-51
2023/03/25 03:35:20;;;;;;;;;;;;;;;;;;1038095;28;2807;-52
2023/03/25 03:35:57;;;;;;;;;;;;;;;;;;1037677;28;3876;-50
2023/03/25 03:36:29;;;;;;;;;;;;;;;;;;1038321;28;1880;-52
2023/03/25 03:37:01;;;;;;;;;;;;;;;;;;1036117;28;4088;-52
2023/03/25 03:37:33;;;;;;;;;;;;;;;;;;1039163;28;3879;-50
2023/03/25 03:38:08;;;;;;;;;;;;;;;;;;1037056;28;2091;-52
2023/03/25 03:38:40;;;;;;;;;;;;;;;;;;1038212;28;3767;-51
2023/03/25 03:39:19;;;;;;;;;;;;;;;;;;1038031;28;2285;-50
2023/03/25 03:39:51;;;;;;;;;;;;;;;;;;1037689;28;4108;-52
2023/03/25 03:40:23;;;;;;;;;;;;;;;;;;1036790;28;2731;-52
2023/03/25 03:40:55;;;;;;;;;;;;;;;;;;1034432;28;3868;-50
2023/03/25 03:41:27;;;;;;;;;;;;;;;;;;1035717;28;2789;-51
2023/03/25 03:42:11;;;;;;;;;;;;;;;;;;1038710;28;3930;-51
2023/03/25 03:42:43;;;;;;;;;;;;;;;;;;1035464;28;4036;-51
2023/03/25 03:43:16;;;;;;;;;;;;;;;;;;1038861;28;2866;-51
2023/03/25 03:43:53;;;;;;;;;;;;;;;;;;1038669;28;3846;-50
2023/03/25 03:44:26;;;;;;;;;;;;;;;;;;1036343;28;2617;-53
2023/03/25 03:44:59;;;;;;;;;;;;;;;;;;1036641;28;3863;-51
2023/03/25 03:45:33;;;;;;;;;;;;;;;;;;1037090;28;4175;-50
2023/03/25 03:46:08;;;;;;;;;;;;;;;;;;1039573;28;1576;-51
2023/03/25 03:46:40;;;;;;;;;;;;;;;;;;1038276;28;4041;-50
2023/03/25 03:47:14;;;;;;;;;;;;;;;;;;1037947;28;1887;-55
2023/03/25 03:47:47;;;;;;;;;;;;;;;;;;1036187;28;4048;-50
2023/03/25 03:48:22;;;;;;;;;;;;;;;;;;1037419;28;2338;-51
2023/03/25 03:49:00;;;;;;;;;;;;;;;;;;1038271;28;4182;-49
2023/03/25 03:49:48;;;;;;;;;;;;;;;;;;1037889;28;4059;-50
2023/03/25 03:50:27;;;;;;;;;;;;;;;;;;1036555;28;2656;-54
2023/03/25 03:51:03;;;;;;;;;;;;;;;;;;1035961;28;3969;-48
2023/03/25 03:51:47;;;;;;;;;;;;;;;;;;1038480;28;4032;-53
2023/03/25 03:52:21;;;;;;;;;;;;;;;;;;1038449;28;1748;-52
2023/03/25 03:52:58;;;;;;;;;;;;;;;;;;1036971;28;4071;-55
2023/03/25 03:53:32;;;;;;;;;;;;;;;;;;1038160;28;4051;-49
2023/03/25 03:54:05;;;;;;;;;;;;;;;;;;1036370;28;2819;-51
2023/03/25 03:54:40;;;;;;;;;;;;;;;;;;1038398;28;4075;-48
2023/03/25 03:55:15;;;;;;;;;;;;;;;;;;1039220;28;1667;-49
2023/03/25 03:55:51;;;;;;;;;;;;;;;;;;1038405;28;3980;-50